British Robin — MGSH7 — position and weather

sailwx.info

Track history (hours):
 
Tides and Currents Weather Stations Pressure Air Temp Water Temp Dewpoint Dewpoint Depression Visibility Wind Speed Wind Dir Waves Ship Positions

British Robin

Last reported at 2015-Jul-27 03:22 UTC. Time now 2015-Jul-31 07:19 UTC.
Position N 50°21' W 000°49'.

Length 251.5 m; beam 43.9 m; draft 15 m.

Type: Tanker. MMSI: 232156000.

Date/timePositionNaut miles runAvg speedWind from/ knotsBaromVisibWave heightAir tempDewpointWater temp
2015-Jul-27 03:22N 50°21' W 000°49'8 8.5
2015-Jul-27 02:23N 50°23' W 000°36'2910.0
2015-Jul-26 23:31N 50°31' E 000°07'1111.1
2015-Jul-26 22:33N 50°34' E 000°24'1110.8
2015-Jul-26 21:34N 50°38' E 000°39'1110.6
2015-Jul-26 20:34N 50°44' E 000°53'10 9.8
2015-Jul-26 19:33N 50°50' E 001°06'9 9.1
2015-Jul-26 18:33N 50°55' E 001°18'9 8.9
2015-Jul-26 17:33N 51°02' E 001°27'1010.4
2015-Jul-26 16:33N 51°09' E 001°38'1211.7
2015-Jul-26 15:33N 51°18' E 001°50'1212.4
2015-Jul-26 14:33N 51°29' E 002°01'1212.3
2015-Jul-26 13:33N 51°38' E 002°14'6210.2
2015-Jul-26 07:31N 52°09' E 003°40'2 0.6
2015-Jul-26 04:31N 52°10' E 003°38'0 0.0
2015-Jul-26 03:25N 52°10' E 003°38'0 0.0
2015-Jul-26 02:31N 52°10' E 003°38'0 0.0
2015-Jul-26 01:19N 52°10' E 003°38'0 0.0
2015-Jul-26 00:19N 52°10' E 003°38'0 0.0
2015-Jul-25 19:10N 52°10' E 003°39'0 0.2
2015-Jul-25 18:34N 52°10' E 003°38'0 0.2
2015-Jul-25 17:33N 52°10' E 003°39'1 0.6
2015-Jul-25 16:34N 52°10' E 003°38'0 0.2
2015-Jul-25 15:13N 52°10' E 003°38'0 0.5
2015-Jul-25 14:24N 52°10' E 003°37'0 0.2
2015-Jul-25 13:08N 52°10' E 003°37'1 1.1
2015-Jul-25 12:33N 52°10' E 003°38'1 0.5
2015-Jul-25 11:32N 52°09' E 003°39'1 1.3
2015-Jul-25 10:33N 52°09' E 003°41'1 1.3
2015-Jul-25 09:34N 52°07' E 003°40'0 0.1
2015-Jul-25 07:22N 52°07' E 003°40'0 0.0
2015-Jul-25 05:24N 52°07' E 003°40'0 0.1
2015-Jul-25 04:18N 52°08' E 003°40'0 0.2
2015-Jul-25 03:30N 52°08' E 003°40'0 0.2
2015-Jul-25 02:33N 52°07' E 003°40'0 0.1
2015-Jul-25 01:33N 52°07' E 003°40'0 0.1
2015-Jul-25 00:33N 52°08' E 003°40'0 0.0
2015-Jul-24 23:33N 52°08' E 003°40'0 0.1
2015-Jul-24 22:30N 52°07' E 003°40'0 0.0
2015-Jul-24 21:33N 52°08' E 003°40'0 0.1
2015-Jul-24 20:33N 52°08' E 003°40'0 0.0
2015-Jul-24 19:33N 52°08' E 003°40'0 0.1
2015-Jul-24 18:33N 52°07' E 003°40'0 0.1
2015-Jul-24 17:33N 52°07' E 003°40'0 0.0
2015-Jul-24 16:33N 52°07' E 003°40'0 0.0
2015-Jul-24 15:30N 52°07' E 003°40'0 0.0
2015-Jul-24 14:33N 52°07' E 003°40'0 0.0
2015-Jul-24 13:33N 52°07' E 003°40'0 0.0
2015-Jul-24 12:33N 52°07' E 003°40'0 0.0
2015-Jul-24 11:33N 52°07' E 003°40'0 0.2
2015-Jul-24 10:33N 52°08' E 003°40'0 0.1
2015-Jul-24 09:27N 52°08' E 003°40'0 0.0
2015-Jul-24 08:18N 52°08' E 003°40'0 0.0
2015-Jul-24 07:33N 52°08' E 003°40'0 0.0
2015-Jul-24 06:33N 52°08' E 003°40'0 0.1
2015-Jul-24 05:33N 52°07' E 003°40'0 0.2
2015-Jul-24 04:33N 52°07' E 003°40'0 0.0
2015-Jul-24 03:33N 52°07' E 003°40'0 0.0
2015-Jul-24 02:33N 52°07' E 003°40'0 0.0
2015-Jul-24 01:33N 52°07' E 003°40'0 0.0
2015-Jul-24 00:33N 52°07' E 003°40'0 0.1
2015-Jul-23 23:18N 52°07' E 003°40'0 0.2
2015-Jul-23 22:33N 52°08' E 003°40'0 0.0
2015-Jul-23 21:33N 52°08' E 003°40'0 0.0
2015-Jul-23 20:33N 52°08' E 003°40'0 0.0
2015-Jul-23 19:32N 52°08' E 003°40'0 0.0
2015-Jul-23 18:26N 52°08' E 003°40'0 0.0
2015-Jul-23 17:26N 52°08' E 003°40'0 0.1
2015-Jul-23 15:23N 52°07' E 003°40'0 0.0
2015-Jul-23 14:32N 52°07' E 003°40'0 0.0
2015-Jul-23 13:32N 52°07' E 003°40'0 0.0
2015-Jul-23 12:29N 52°07' E 003°40'0 0.1
2015-Jul-23 11:14N 52°07' E 003°40'0 0.1
2015-Jul-23 07:26N 52°08' E 003°40'0 0.0
2015-Jul-23 05:29N 52°07' E 003°40'0 0.1
2015-Jul-23 03:26N 52°07' E 003°40'0 0.0
2015-Jul-23 01:29N 52°07' E 003°40'0 0.0
2015-Jul-23 00:20N 52°07' E 003°40'0 0.1
2015-Jul-22 23:32N 52°07' E 003°40'0 0.1
2015-Jul-22 22:26N 52°07' E 003°40'0 0.0
2015-Jul-22 20:26N 52°07' E 003°40'0 0.0
2015-Jul-22 16:26N 52°08' E 003°40'0 0.0
2015-Jul-22 15:32N 52°08' E 003°40'0 0.2
2015-Jul-22 14:26N 52°07' E 003°40'0 0.1
2015-Jul-22 13:26N 52°07' E 003°40'0 0.0
2015-Jul-22 12:32N 52°07' E 003°40'0 0.1
2015-Jul-22 09:31N 52°07' E 003°40'0 0.0
2015-Jul-22 08:31N 52°08' E 003°40'0 0.0
2015-Jul-22 06:25N 52°08' E 003°40'0 0.0
2015-Jul-22 05:31N 52°08' E 003°40'0 0.0
2015-Jul-22 04:25N 52°08' E 003°40'0 0.0
2015-Jul-22 03:31N 52°07' E 003°40'0 0.1
2015-Jul-22 01:19N 52°07' E 003°40'0 0.1
2015-Jul-22 00:16N 52°07' E 003°40'0 0.1
2015-Jul-21 23:31N 52°07' E 003°40'0 0.1
2015-Jul-21 22:28N 52°07' E 003°40'0 0.0
2015-Jul-21 20:25N 52°08' E 003°40'0 0.0
2015-Jul-21 18:31N 52°08' E 003°40'0 0.0
2015-Jul-21 17:31N 52°08' E 003°40'0 0.0
2015-Jul-21 16:31N 52°08' E 003°40'0 0.0
2015-Jul-21 15:31N 52°08' E 003°40'0 0.0
2015-Jul-21 14:31N 52°07' E 003°40'0 0.2
2015-Jul-21 13:31N 52°07' E 003°40'0 0.1
2015-Jul-21 12:31N 52°07' E 003°40'0 0.0
2015-Jul-21 11:31N 52°07' E 003°40'0 0.1
2015-Jul-21 10:31N 52°07' E 003°40'0 0.1
2015-Jul-21 09:31N 52°07' E 003°40'0 0.0
2015-Jul-21 08:07N 52°08' E 003°40'0 0.0
2015-Jul-21 07:31N 52°08' E 003°40'0 0.0
2015-Jul-21 06:25N 52°07' E 003°40'0 0.0
2015-Jul-21 05:31N 52°07' E 003°40'0 0.0
2015-Jul-21 04:25N 52°07' E 003°40'0 0.0
2015-Jul-20 21:33N 52°08' E 003°40'0 0.0
2015-Jul-20 20:27N 52°08' E 003°40'0 0.1
2015-Jul-20 19:18N 52°08' E 003°40'0 0.0
2015-Jul-20 15:24N 52°08' E 003°40'0 0.2
2015-Jul-20 14:30N 52°08' E 003°40'0 0.2
2015-Jul-20 13:27N 52°07' E 003°40'0 0.1
2015-Jul-20 12:33N 52°07' E 003°40'0 0.0
2015-Jul-20 11:33N 52°07' E 003°40'0 0.0
2015-Jul-20 10:33N 52°07' E 003°40'0 0.1
2015-Jul-20 09:33N 52°07' E 003°40'0 0.2
2015-Jul-20 08:33N 52°08' E 003°40'0 0.0
2015-Jul-20 07:30N 52°08' E 003°40'0 0.0
2015-Jul-20 06:27N 52°08' E 003°40'0 0.0
2015-Jul-20 05:27N 52°08' E 003°40'0 0.0
2015-Jul-20 04:12N 52°08' E 003°40'0 0.0
2015-Jul-20 03:27N 52°08' E 003°40'0 0.1
2015-Jul-20 02:33N 52°08' E 003°40'0 0.3
2015-Jul-20 01:33N 52°07' E 003°40'0 0.0
2015-Jul-20 00:30N 52°07' E 003°40'0 0.0
2015-Jul-19 23:30N 52°07' E 003°40'0 0.0
2015-Jul-19 22:30N 52°07' E 003°40'0 0.1
2015-Jul-19 20:15N 52°07' E 003°40'0 0.0
2015-Jul-19 18:24N 52°08' E 003°40'0 0.0
2015-Jul-19 17:33N 52°08' E 003°40'0 0.0
2015-Jul-19 16:33N 52°08' E 003°40'0 0.0
2015-Jul-19 15:30N 52°08' E 003°40'0 0.0
2015-Jul-19 14:33N 52°08' E 003°40'0 0.1
2015-Jul-19 12:29N 52°07' E 003°40'0 0.1
2015-Jul-19 11:32N 52°07' E 003°40'0 0.0
2015-Jul-19 10:32N 52°07' E 003°40'0 0.1
2015-Jul-19 09:26N 52°07' E 003°40'0 0.2
2015-Jul-19 08:08N 52°08' E 003°40'0 0.1
2015-Jul-19 07:29N 52°08' E 003°40'0 0.0
2015-Jul-19 06:32N 52°08' E 003°40'0 0.0
2015-Jul-19 05:29N 52°08' E 003°40'0 0.0
2015-Jul-19 04:29N 52°08' E 003°40'0 0.1
2015-Jul-19 00:32N 52°07' E 003°40'0 0.0
2015-Jul-18 23:32N 52°07' E 003°40'0 0.0
2015-Jul-18 22:32N 52°07' E 003°40'0 0.0
2015-Jul-18 21:29N 52°07' E 003°40'0 0.2
2015-Jul-18 20:32N 52°07' E 003°40'0 0.2
2015-Jul-18 19:32N 52°08' E 003°40'0 0.0
2015-Jul-18 18:29N 52°08' E 003°40'0 0.0
2015-Jul-18 17:23N 52°08' E 003°40'0 0.0
2015-Jul-18 16:32N 52°08' E 003°40'0 0.0
2015-Jul-18 15:29N 52°08' E 003°40'0 0.0
2015-Jul-18 14:32N 52°07' E 003°40'0 0.1
2015-Jul-18 12:29N 52°07' E 003°40'0 0.1
2015-Jul-18 11:32N 52°07' E 003°40'0 0.0
2015-Jul-18 10:26N 52°07' E 003°40'0 0.0
2015-Jul-18 09:32N 52°07' E 003°40'0 0.1
2015-Jul-18 08:23N 52°07' E 003°40'0 0.1
2015-Jul-18 06:17N 52°07' E 003°40'0 0.0
2015-Jul-18 04:26N 52°07' E 003°40'0 0.0
2015-Jul-18 03:31N 52°08' E 003°40'0 0.0
2015-Jul-18 02:31N 52°07' E 003°40'0 0.0
2015-Jul-18 01:16N 52°07' E 003°40'0 0.0
2015-Jul-18 00:22N 52°07' E 003°40'0 0.0
2015-Jul-17 23:31N 52°07' E 003°40'0 0.1
2015-Jul-17 22:25N 52°07' E 003°40'0 0.0
2015-Jul-17 21:19N 52°07' E 003°40'0 0.1
2015-Jul-17 19:25N 52°07' E 003°40'0 0.1
2015-Jul-17 18:31N 52°08' E 003°40'0 0.0
2015-Jul-17 17:31N 52°08' E 003°40'0 0.0
2015-Jul-17 16:16N 52°08' E 003°40'0 0.0
2015-Jul-17 15:19N 52°08' E 003°40'0 0.0
2015-Jul-17 14:31N 52°08' E 003°40'0 0.0
2015-Jul-17 13:22N 52°08' E 003°40'0 0.0
2015-Jul-17 11:28N 52°08' E 003°40'0 0.1
2015-Jul-17 10:31N 52°07' E 003°40'0 0.0
2015-Jul-17 08:25N 52°07' E 003°40'0 0.0
2015-Jul-17 06:28N 52°07' E 003°40'0 0.1
2015-Jul-17 05:31N 52°08' E 003°40'0 0.1
2015-Jul-17 04:31N 52°08' E 003°40'0 0.0
2015-Jul-17 03:31N 52°08' E 003°40'  
Track history (hours):
 
Tides and Currents Weather Stations Pressure Air Temp Water Temp Dewpoint Dewpoint Depression Visibility Wind Speed Wind Dir Waves Ship Positions

British Robin

Last reported at 2015-Jul-27 03:22 UTC. Time now 2015-Jul-31 07:19 UTC.
Position N 50°21' W 000°49'.

Length 251.5 m; beam 43.9 m; draft 15 m.

Type: Tanker. MMSI: 232156000.

Date/timePositionNaut miles runAvg speedWind from/ knotsBaromVisibWave heightAir tempDewpointWater temp
2015-Jul-27 03:22N 50°21' W 000°49'8 8.5
2015-Jul-27 02:23N 50°23' W 000°36'2910.0
2015-Jul-26 23:31N 50°31' E 000°07'1111.1
2015-Jul-26 22:33N 50°34' E 000°24'1110.8
2015-Jul-26 21:34N 50°38' E 000°39'1110.6
2015-Jul-26 20:34N 50°44' E 000°53'10 9.8
2015-Jul-26 19:33N 50°50' E 001°06'9 9.1
2015-Jul-26 18:33N 50°55' E 001°18'9 8.9
2015-Jul-26 17:33N 51°02' E 001°27'1010.4
2015-Jul-26 16:33N 51°09' E 001°38'1211.7
2015-Jul-26 15:33N 51°18' E 001°50'1212.4
2015-Jul-26 14:33N 51°29' E 002°01'1212.3
2015-Jul-26 13:33N 51°38' E 002°14'6210.2
2015-Jul-26 07:31N 52°09' E 003°40'2 0.6
2015-Jul-26 04:31N 52°10' E 003°38'0 0.0
2015-Jul-26 03:25N 52°10' E 003°38'0 0.0
2015-Jul-26 02:31N 52°10' E 003°38'0 0.0
2015-Jul-26 01:19N 52°10' E 003°38'0 0.0
2015-Jul-26 00:19N 52°10' E 003°38'0 0.0
2015-Jul-25 19:10N 52°10' E 003°39'0 0.2
2015-Jul-25 18:34N 52°10' E 003°38'0 0.2
2015-Jul-25 17:33N 52°10' E 003°39'1 0.6
2015-Jul-25 16:34N 52°10' E 003°38'0 0.2
2015-Jul-25 15:13N 52°10' E 003°38'0 0.5
2015-Jul-25 14:24N 52°10' E 003°37'0 0.2
2015-Jul-25 13:08N 52°10' E 003°37'1 1.1
2015-Jul-25 12:33N 52°10' E 003°38'1 0.5
2015-Jul-25 11:32N 52°09' E 003°39'1 1.3
2015-Jul-25 10:33N 52°09' E 003°41'1 1.3
2015-Jul-25 09:34N 52°07' E 003°40'0 0.1
2015-Jul-25 07:22N 52°07' E 003°40'0 0.0
2015-Jul-25 05:24N 52°07' E 003°40'0 0.1
2015-Jul-25 04:18N 52°08' E 003°40'0 0.2
2015-Jul-25 03:30N 52°08' E 003°40'0 0.2
2015-Jul-25 02:33N 52°07' E 003°40'0 0.1
2015-Jul-25 01:33N 52°07' E 003°40'0 0.1
2015-Jul-25 00:33N 52°08' E 003°40'0 0.0
2015-Jul-24 23:33N 52°08' E 003°40'0 0.1
2015-Jul-24 22:30N 52°07' E 003°40'0 0.0
2015-Jul-24 21:33N 52°08' E 003°40'0 0.1
2015-Jul-24 20:33N 52°08' E 003°40'0 0.0
2015-Jul-24 19:33N 52°08' E 003°40'0 0.1
2015-Jul-24 18:33N 52°07' E 003°40'0 0.1
2015-Jul-24 17:33N 52°07' E 003°40'0 0.0
2015-Jul-24 16:33N 52°07' E 003°40'0 0.0
2015-Jul-24 15:30N 52°07' E 003°40'0 0.0
2015-Jul-24 14:33N 52°07' E 003°40'0 0.0
2015-Jul-24 13:33N 52°07' E 003°40'0 0.0
2015-Jul-24 12:33N 52°07' E 003°40'0 0.0
2015-Jul-24 11:33N 52°07' E 003°40'0 0.2
2015-Jul-24 10:33N 52°08' E 003°40'0 0.1
2015-Jul-24 09:27N 52°08' E 003°40'0 0.0
2015-Jul-24 08:18N 52°08' E 003°40'0 0.0
2015-Jul-24 07:33N 52°08' E 003°40'0 0.0
2015-Jul-24 06:33N 52°08' E 003°40'0 0.1
2015-Jul-24 05:33N 52°07' E 003°40'0 0.2
2015-Jul-24 04:33N 52°07' E 003°40'0 0.0
2015-Jul-24 03:33N 52°07' E 003°40'0 0.0
2015-Jul-24 02:33N 52°07' E 003°40'0 0.0
2015-Jul-24 01:33N 52°07' E 003°40'0 0.0
2015-Jul-24 00:33N 52°07' E 003°40'0 0.1
2015-Jul-23 23:18N 52°07' E 003°40'0 0.2
2015-Jul-23 22:33N 52°08' E 003°40'0 0.0
2015-Jul-23 21:33N 52°08' E 003°40'0 0.0
2015-Jul-23 20:33N 52°08' E 003°40'0 0.0
2015-Jul-23 19:32N 52°08' E 003°40'0 0.0
2015-Jul-23 18:26N 52°08' E 003°40'0 0.0
2015-Jul-23 17:26N 52°08' E 003°40'0 0.1
2015-Jul-23 15:23N 52°07' E 003°40'0 0.0
2015-Jul-23 14:32N 52°07' E 003°40'0 0.0
2015-Jul-23 13:32N 52°07' E 003°40'0 0.0
2015-Jul-23 12:29N 52°07' E 003°40'0 0.1
2015-Jul-23 11:14N 52°07' E 003°40'0 0.1
2015-Jul-23 07:26N 52°08' E 003°40'0 0.0
2015-Jul-23 05:29N 52°07' E 003°40'0 0.1
2015-Jul-23 03:26N 52°07' E 003°40'0 0.0
2015-Jul-23 01:29N 52°07' E 003°40'0 0.0
2015-Jul-23 00:20N 52°07' E 003°40'0 0.1
2015-Jul-22 23:32N 52°07' E 003°40'0 0.1
2015-Jul-22 22:26N 52°07' E 003°40'0 0.0
2015-Jul-22 20:26N 52°07' E 003°40'0 0.0
2015-Jul-22 16:26N 52°08' E 003°40'0 0.0
2015-Jul-22 15:32N 52°08' E 003°40'0 0.2
2015-Jul-22 14:26N 52°07' E 003°40'0 0.1
2015-Jul-22 13:26N 52°07' E 003°40'0 0.0
2015-Jul-22 12:32N 52°07' E 003°40'0 0.1
2015-Jul-22 09:31N 52°07' E 003°40'0 0.0
2015-Jul-22 08:31N 52°08' E 003°40'0 0.0
2015-Jul-22 06:25N 52°08' E 003°40'0 0.0
2015-Jul-22 05:31N 52°08' E 003°40'0 0.0
2015-Jul-22 04:25N 52°08' E 003°40'0 0.0
2015-Jul-22 03:31N 52°07' E 003°40'0 0.1
2015-Jul-22 01:19N 52°07' E 003°40'0 0.1
2015-Jul-22 00:16N 52°07' E 003°40'0 0.1
2015-Jul-21 23:31N 52°07' E 003°40'0 0.1
2015-Jul-21 22:28N 52°07' E 003°40'0 0.0
2015-Jul-21 20:25N 52°08' E 003°40'0 0.0
2015-Jul-21 18:31N 52°08' E 003°40'0 0.0
2015-Jul-21 17:31N 52°08' E 003°40'0 0.0
2015-Jul-21 16:31N 52°08' E 003°40'0 0.0
2015-Jul-21 15:31N 52°08' E 003°40'0 0.0
2015-Jul-21 14:31N 52°07' E 003°40'0 0.2
2015-Jul-21 13:31N 52°07' E 003°40'0 0.1
2015-Jul-21 12:31N 52°07' E 003°40'0 0.0
2015-Jul-21 11:31N 52°07' E 003°40'0 0.1
2015-Jul-21 10:31N 52°07' E 003°40'0 0.1
2015-Jul-21 09:31N 52°07' E 003°40'0 0.0
2015-Jul-21 08:07N 52°08' E 003°40'0 0.0
2015-Jul-21 07:31N 52°08' E 003°40'0 0.0
2015-Jul-21 06:25N 52°07' E 003°40'0 0.0
2015-Jul-21 05:31N 52°07' E 003°40'0 0.0
2015-Jul-21 04:25N 52°07' E 003°40'0 0.0
2015-Jul-20 21:33N 52°08' E 003°40'0 0.0
2015-Jul-20 20:27N 52°08' E 003°40'0 0.1
2015-Jul-20 19:18N 52°08' E 003°40'0 0.0
2015-Jul-20 15:24N 52°08' E 003°40'0 0.2
2015-Jul-20 14:30N 52°08' E 003°40'0 0.2
2015-Jul-20 13:27N 52°07' E 003°40'0 0.1
2015-Jul-20 12:33N 52°07' E 003°40'0 0.0
2015-Jul-20 11:33N 52°07' E 003°40'0 0.0
2015-Jul-20 10:33N 52°07' E 003°40'0 0.1
2015-Jul-20 09:33N 52°07' E 003°40'0 0.2
2015-Jul-20 08:33N 52°08' E 003°40'0 0.0
2015-Jul-20 07:30N 52°08' E 003°40'0 0.0
2015-Jul-20 06:27N 52°08' E 003°40'0 0.0
2015-Jul-20 05:27N 52°08' E 003°40'0 0.0
2015-Jul-20 04:12N 52°08' E 003°40'0 0.0
2015-Jul-20 03:27N 52°08' E 003°40'0 0.1
2015-Jul-20 02:33N 52°08' E 003°40'0 0.3
2015-Jul-20 01:33N 52°07' E 003°40'0 0.0
2015-Jul-20 00:30N 52°07' E 003°40'0 0.0
2015-Jul-19 23:30N 52°07' E 003°40'0 0.0
2015-Jul-19 22:30N 52°07' E 003°40'0 0.1
2015-Jul-19 20:15N 52°07' E 003°40'0 0.0
2015-Jul-19 18:24N 52°08' E 003°40'0 0.0
2015-Jul-19 17:33N 52°08' E 003°40'0 0.0
2015-Jul-19 16:33N 52°08' E 003°40'0 0.0
2015-Jul-19 15:30N 52°08' E 003°40'0 0.0
2015-Jul-19 14:33N 52°08' E 003°40'0 0.1
2015-Jul-19 12:29N 52°07' E 003°40'0 0.1
2015-Jul-19 11:32N 52°07' E 003°40'0 0.0
2015-Jul-19 10:32N 52°07' E 003°40'0 0.1
2015-Jul-19 09:26N 52°07' E 003°40'0 0.2
2015-Jul-19 08:08N 52°08' E 003°40'0 0.1
2015-Jul-19 07:29N 52°08' E 003°40'0 0.0
2015-Jul-19 06:32N 52°08' E 003°40'0 0.0
2015-Jul-19 05:29N 52°08' E 003°40'0 0.0
2015-Jul-19 04:29N 52°08' E 003°40'0 0.1
2015-Jul-19 00:32N 52°07' E 003°40'0 0.0
2015-Jul-18 23:32N 52°07' E 003°40'0 0.0
2015-Jul-18 22:32N 52°07' E 003°40'0 0.0
2015-Jul-18 21:29N 52°07' E 003°40'0 0.2
2015-Jul-18 20:32N 52°07' E 003°40'0 0.2
2015-Jul-18 19:32N 52°08' E 003°40'0 0.0
2015-Jul-18 18:29N 52°08' E 003°40'0 0.0
2015-Jul-18 17:23N 52°08' E 003°40'0 0.0
2015-Jul-18 16:32N 52°08' E 003°40'0 0.0
2015-Jul-18 15:29N 52°08' E 003°40'0 0.0
2015-Jul-18 14:32N 52°07' E 003°40'0 0.1
2015-Jul-18 12:29N 52°07' E 003°40'0 0.1
2015-Jul-18 11:32N 52°07' E 003°40'0 0.0
2015-Jul-18 10:26N 52°07' E 003°40'0 0.0
2015-Jul-18 09:32N 52°07' E 003°40'0 0.1
2015-Jul-18 08:23N 52°07' E 003°40'0 0.1
2015-Jul-18 06:17N 52°07' E 003°40'0 0.0
2015-Jul-18 04:26N 52°07' E 003°40'0 0.0
2015-Jul-18 03:31N 52°08' E 003°40'0 0.0
2015-Jul-18 02:31N 52°07' E 003°40'0 0.0
2015-Jul-18 01:16N 52°07' E 003°40'0 0.0
2015-Jul-18 00:22N 52°07' E 003°40'0 0.0
2015-Jul-17 23:31N 52°07' E 003°40'0 0.1
2015-Jul-17 22:25N 52°07' E 003°40'0 0.0
2015-Jul-17 21:19N 52°07' E 003°40'0 0.1
2015-Jul-17 19:25N 52°07' E 003°40'0 0.1
2015-Jul-17 18:31N 52°08' E 003°40'0 0.0
2015-Jul-17 17:31N 52°08' E 003°40'0 0.0
2015-Jul-17 16:16N 52°08' E 003°40'0 0.0
2015-Jul-17 15:19N 52°08' E 003°40'0 0.0
2015-Jul-17 14:31N 52°08' E 003°40'0 0.0
2015-Jul-17 13:22N 52°08' E 003°40'0 0.0
2015-Jul-17 11:28N 52°08' E 003°40'0 0.1
2015-Jul-17 10:31N 52°07' E 003°40'0 0.0
2015-Jul-17 08:25N 52°07' E 003°40'0 0.0
2015-Jul-17 06:28N 52°07' E 003°40'0 0.1
2015-Jul-17 05:31N 52°08' E 003°40'0 0.1
2015-Jul-17 04:31N 52°08' E 003°40'0 0.0
2015-Jul-17 03:31N 52°08' E 003°40'  

Dump ship's entire track history